sensor_id;sensor_type;location;lat;lon;timestamp;pressure;altitude;pressure_sealevel;temperature;humidity
19457;BME280;9867;48.094;11.478;2023-07-31T00:01:22;95365.47;;;23.18;88.87
19457;BME280;9867;48.094;11.478;2023-07-31T00:03:51;95369.19;;;23.11;88.90
19457;BME280;9867;48.094;11.478;2023-07-31T00:06:19;95367.34;;;23.12;88.21
19457;BME280;9867;48.094;11.478;2023-07-31T00:08:47;95367.56;;;23.16;88.26
19457;BME280;9867;48.094;11.478;2023-07-31T00:11:16;95373.41;;;22.97;90.55
19457;BME280;9867;48.094;11.478;2023-07-31T00:13:44;95365.03;;;22.95;90.69
19457;BME280;9867;48.094;11.478;2023-07-31T00:16:12;95371.34;;;22.94;91.29
19457;BME280;9867;48.094;11.478;2023-07-31T00:18:40;95362.56;;;23.19;89.18
19457;BME280;9867;48.094;11.478;2023-07-31T00:21:10;95364.22;;;23.10;89.35
19457;BME280;9867;48.094;11.478;2023-07-31T00:23:38;95363.69;;;23.08;92.82
19457;BME280;9867;48.094;11.478;2023-07-31T00:26:06;95364.22;;;23.05;95.91
19457;BME280;9867;48.094;11.478;2023-07-31T00:28:33;95363.13;;;23.16;94.86
19457;BME280;9867;48.094;11.478;2023-07-31T00:31:01;95356.38;;;23.05;92.63
19457;BME280;9867;48.094;11.478;2023-07-31T00:33:31;95360.81;;;23.04;91.74
19457;BME280;9867;48.094;11.478;2023-07-31T00:35:59;95354.13;;;22.73;95.10
19457;BME280;9867;48.094;11.478;2023-07-31T00:38:28;95355.13;;;22.92;92.53
19457;BME280;9867;48.094;11.478;2023-07-31T00:40:56;95356.16;;;22.96;92.99
19457;BME280;9867;48.094;11.478;2023-07-31T00:43:25;95349.13;;;22.76;94.21
19457;BME280;9867;48.094;11.478;2023-07-31T00:45:53;95349.69;;;22.78;95.26
19457;BME280;9867;48.094;11.478;2023-07-31T00:48:25;95347.31;;;22.87;94.03
19457;BME280;9867;48.094;11.478;2023-07-31T00:50:53;95347.47;;;23.11;92.82
19457;BME280;9867;48.094;11.478;2023-07-31T00:53:21;95337.28;;;23.04;93.58
19457;BME280;9867;48.094;11.478;2023-07-31T00:55:51;95339.38;;;23.02;96.21
19457;BME280;9867;48.094;11.478;2023-07-31T00:58:19;95337.28;;;23.04;96.51
19457;BME280;9867;48.094;11.478;2023-07-31T01:00:47;95338.31;;;23.08;97.33
19457;BME280;9867;48.094;11.478;2023-07-31T01:03:17;95334.91;;;23.08;97.16
19457;BME280;9867;48.094;11.478;2023-07-31T01:05:49;95332.56;;;23.06;99.66
19457;BME280;9867;48.094;11.478;2023-07-31T01:08:29;95328.13;;;23.02;98.46
19457;BME280;9867;48.094;11.478;2023-07-31T01:11:07;95329.38;;;23.15;99.13
19457;BME280;9867;48.094;11.478;2023-07-31T01:13:37;95332.28;;;23.08;100.00
19457;BME280;9867;48.094;11.478;2023-07-31T01:16:05;95331.69;;;23.21;100.00
19457;BME280;9867;48.094;11.478;2023-07-31T01:18:33;95331.91;;;23.30;100.00
19457;BME280;9867;48.094;11.478;2023-07-31T01:21:17;95331.91;;;23.30;100.00
19457;BME280;9867;48.094;11.478;2023-07-31T01:24:03;95320.63;;;23.29;99.73
19457;BME280;9867;48.094;11.478;2023-07-31T01:26:39;95331.38;;;23.28;98.58
19457;BME280;9867;48.094;11.478;2023-07-31T01:29:11;95318.94;;;23.09;100.00
19457;BME280;9867;48.094;11.478;2023-07-31T01:31:43;95322.00;;;23.17;100.00
19457;BME280;9867;48.094;11.478;2023-07-31T01:34:15;95314.66;;;23.19;100.00
19457;BME280;9867;48.094;11.478;2023-07-31T01:36:45;95318.56;;;23.26;99.06
19457;BME280;9867;48.094;11.478;2023-07-31T01:39:16;95314.47;;;23.10;100.00
19457;BME280;9867;48.094;11.478;2023-07-31T01:41:45;95308.91;;;23.22;100.00
19457;BME280;9867;48.094;11.478;2023-07-31T01:44:13;95304.97;;;23.19;96.50
19457;BME280;9867;48.094;11.478;2023-07-31T01:46:41;95304.69;;;23.26;95.25
19457;BME280;9867;48.094;11.478;2023-07-31T01:49:09;95304.44;;;23.22;99.47
19457;BME280;9867;48.094;11.478;2023-07-31T01:51:37;95302.59;;;23.23;97.90
19457;BME280;9867;48.094;11.478;2023-07-31T01:54:07;95298.97;;;23.19;96.96
19457;BME280;9867;48.094;11.478;2023-07-31T01:56:34;95285.72;;;23.05;96.60
19457;BME280;9867;48.094;11.478;2023-07-31T01:59:05;95309.66;;;23.27;95.33
19457;BME280;9867;48.094;11.478;2023-07-31T02:01:33;95307.53;;;23.34;94.74
19457;BME280;9867;48.094;11.478;2023-07-31T02:04:01;95302.97;;;23.06;95.40
19457;BME280;9867;48.094;11.478;2023-07-31T02:06:29;95296.97;;;23.05;96.30
19457;BME280;9867;48.094;11.478;2023-07-31T02:08:57;95297.53;;;22.97;96.26
19457;BME280;9867;48.094;11.478;2023-07-31T02:11:25;95290.88;;;23.15;95.09
19457;BME280;9867;48.094;11.478;2023-07-31T02:13:53;95294.19;;;22.87;95.13
19457;BME280;9867;48.094;11.478;2023-07-31T02:16:22;95294.97;;;22.77;98.47
19457;BME280;9867;48.094;11.478;2023-07-31T02:18:50;95286.06;;;22.88;98.41
19457;BME280;9867;48.094;11.478;2023-07-31T02:21:18;95276.81;;;23.06;99.03
19457;BME280;9867;48.094;11.478;2023-07-31T02:23:46;95284.13;;;23.09;99.21
19457;BME280;9867;48.094;11.478;2023-07-31T02:26:14;95281.00;;;23.07;100.00
19457;BME280;9867;48.094;11.478;2023-07-31T02:28:42;95283.00;;;23.15;100.00
19457;BME280;9867;48.094;11.478;2023-07-31T02:31:11;95273.03;;;23.22;98.99
19457;BME280;9867;48.094;11.478;2023-07-31T02:33:40;95273.75;;;23.33;97.75
19457;BME280;9867;48.094;11.478;2023-07-31T02:36:09;95266.91;;;23.37;98.84
19457;BME280;9867;48.094;11.478;2023-07-31T02:38:37;95265.97;;;23.18;100.00
19457;BME280;9867;48.094;11.478;2023-07-31T02:41:05;95270.13;;;23.24;100.00
19457;BME280;9867;48.094;11.478;2023-07-31T02:43:33;95260.81;;;23.12;100.00
19457;BME280;9867;48.094;11.478;2023-07-31T02:46:01;95258.19;;;23.12;100.00
19457;BME280;9867;48.094;11.478;2023-07-31T02:48:29;95255.59;;;23.07;100.00
19457;BME280;9867;48.094;11.478;2023-07-31T02:50:58;95250.13;;;23.04;100.00
19457;BME280;9867;48.094;11.478;2023-07-31T02:53:26;95256.97;;;22.95;100.00
19457;BME280;9867;48.094;11.478;2023-07-31T02:55:54;95256.50;;;22.88;100.00
19457;BME280;9867;48.094;11.478;2023-07-31T02:58:22;95256.00;;;22.81;100.00
19457;BME280;9867;48.094;11.478;2023-07-31T03:00:50;95251.03;;;22.74;100.00
19457;BME280;9867;48.094;11.478;2023-07-31T03:03:18;95252.59;;;22.75;100.00
19457;BME280;9867;48.094;11.478;2023-07-31T03:05:46;95248.69;;;22.77;100.00
19457;BME280;9867;48.094;11.478;2023-07-31T03:08:16;95248.94;;;22.76;100.00
19457;BME280;9867;48.094;11.478;2023-07-31T03:10:44;95244.75;;;22.80;100.00
19457;BME280;9867;48.094;11.478;2023-07-31T03:13:12;95241.09;;;22.71;100.00
19457;BME280;9867;48.094;11.478;2023-07-31T03:15:42;95249.22;;;22.74;100.00
19457;BME280;9867;48.094;11.478;2023-07-31T03:18:10;95246.38;;;22.66;100.00
19457;BME280;9867;48.094;11.478;2023-07-31T03:20:42;95245.94;;;22.49;100.00
19457;BME280;9867;48.094;11.478;2023-07-31T03:23:10;95250.38;;;22.48;100.00
19457;BME280;9867;48.094;11.478;2023-07-31T03:25:41;95247.81;;;22.43;100.00
19457;BME280;9867;48.094;11.478;2023-07-31T03:28:09;95246.47;;;22.45;100.00
19457;BME280;9867;48.094;11.478;2023-07-31T03:30:37;95255.41;;;22.29;100.00
19457;BME280;9867;48.094;11.478;2023-07-31T03:33:05;95259.66;;;22.20;100.00
19457;BME280;9867;48.094;11.478;2023-07-31T03:35:33;95261.47;;;22.20;100.00
19457;BME280;9867;48.094;11.478;2023-07-31T03:38:01;95258.63;;;21.96;100.00
19457;BME280;9867;48.094;11.478;2023-07-31T03:40:29;95263.84;;;21.86;100.00
19457;BME280;9867;48.094;11.478;2023-07-31T03:42:59;95267.53;;;21.85;100.00
19457;BME280;9867;48.094;11.478;2023-07-31T03:45:27;95266.47;;;21.91;100.00
19457;BME280;9867;48.094;11.478;2023-07-31T03:47:55;95263.00;;;22.21;100.00
19457;BME280;9867;48.094;11.478;2023-07-31T03:50:24;95259.84;;;22.34;100.00
19457;BME280;9867;48.094;11.478;2023-07-31T03:52:52;95266.13;;;22.38;100.00
19457;BME280;9867;48.094;11.478;2023-07-31T03:55:20;95263.44;;;22.53;100.00
19457;BME280;9867;48.094;11.478;2023-07-31T03:57:49;95259.00;;;22.49;100.00
19457;BME280;9867;48.094;11.478;2023-07-31T04:00:18;95264.53;;;22.42;100.00
19457;BME280;9867;48.094;11.478;2023-07-31T04:02:47;95266.88;;;22.43;100.00
19457;BME280;9867;48.094;11.478;2023-07-31T04:05:15;95258.78;;;22.40;100.00
19457;BME280;9867;48.094;11.478;2023-07-31T04:07:46;95263.00;;;22.31;100.00
19457;BME280;9867;48.094;11.478;2023-07-31T04:10:22;95254.94;;;22.17;100.00
19457;BME280;9867;48.094;11.478;2023-07-31T04:12:50;95251.75;;;22.25;100.00
19457;BME280;9867;48.094;11.478;2023-07-31T04:15:19;95241.03;;;22.37;100.00
19457;BME280;9867;48.094;11.478;2023-07-31T04:17:47;95247.75;;;22.53;100.00
19457;BME280;9867;48.094;11.478;2023-07-31T04:20:15;95243.56;;;22.52;100.00
19457;BME280;9867;48.094;11.478;2023-07-31T04:22:43;95248.00;;;22.57;100.00
19457;BME280;9867;48.094;11.478;2023-07-31T04:25:10;95251.56;;;22.71;100.00
19457;BME280;9867;48.094;11.478;2023-07-31T04:27:39;95254.53;;;22.59;100.00
19457;BME280;9867;48.094;11.478;2023-07-31T04:30:08;95251.13;;;22.54;100.00
19457;BME280;9867;48.094;11.478;2023-07-31T04:32:37;95245.88;;;22.59;100.00
19457;BME280;9867;48.094;11.478;2023-07-31T04:35:05;95247.03;;;22.32;100.00
19457;BME280;9867;48.094;11.478;2023-07-31T04:37:35;95248.41;;;22.20;100.00
19457;BME280;9867;48.094;11.478;2023-07-31T04:40:03;95247.84;;;22.28;100.00
19457;BME280;9867;48.094;11.478;2023-07-31T04:42:31;95242.97;;;21.91;100.00
19457;BME280;9867;48.094;11.478;2023-07-31T04:44:59;95243.97;;;22.15;100.00
19457;BME280;9867;48.094;11.478;2023-07-31T04:47:27;95245.44;;;22.41;100.00
19457;BME280;9867;48.094;11.478;2023-07-31T04:49:56;95243.63;;;22.37;100.00
19457;BME280;9867;48.094;11.478;2023-07-31T04:52:24;95238.59;;;22.56;100.00
19457;BME280;9867;48.094;11.478;2023-07-31T04:54:52;95240.50;;;22.35;100.00
19457;BME280;9867;48.094;11.478;2023-07-31T04:57:20;95241.44;;;22.59;100.00
19457;BME280;9867;48.094;11.478;2023-07-31T04:59:48;95239.88;;;22.58;100.00
19457;BME280;9867;48.094;11.478;2023-07-31T05:02:17;95231.97;;;22.68;100.00
19457;BME280;9867;48.094;11.478;2023-07-31T05:04:45;95240.75;;;22.43;100.00
19457;BME280;9867;48.094;11.478;2023-07-31T05:07:14;95241.94;;;22.66;100.00
19457;BME280;9867;48.094;11.478;2023-07-31T05:09:43;95242.09;;;22.90;100.00
19457;BME280;9867;48.094;11.478;2023-07-31T05:12:11;95234.78;;;22.87;100.00
19457;BME280;9867;48.094;11.478;2023-07-31T05:14:39;95242.13;;;22.75;100.00
19457;BME280;9867;48.094;11.478;2023-07-31T05:17:07;95242.84;;;22.96;100.00
19457;BME280;9867;48.094;11.478;2023-07-31T05:19:35;95249.06;;;23.05;100.00
19457;BME280;9867;48.094;11.478;2023-07-31T05:22:04;95246.19;;;23.06;100.00
19457;BME280;9867;48.094;11.478;2023-07-31T05:24:33;95244.53;;;23.16;100.00
19457;BME280;9867;48.094;11.478;2023-07-31T05:27:01;95241.81;;;23.31;100.00
19457;BME280;9867;48.094;11.478;2023-07-31T05:29:29;95246.16;;;23.45;100.00
19457;BME280;9867;48.094;11.478;2023-07-31T05:31:57;95234.63;;;23.46;100.00
19457;BME280;9867;48.094;11.478;2023-07-31T05:34:24;95239.97;;;23.65;100.00
19457;BME280;9867;48.094;11.478;2023-07-31T05:36:53;95232.63;;;23.96;100.00
19457;BME280;9867;48.094;11.478;2023-07-31T05:39:20;95235.22;;;24.25;97.64
19457;BME280;9867;48.094;11.478;2023-07-31T05:41:50;95236.97;;;23.82;99.62
19457;BME280;9867;48.094;11.478;2023-07-31T05:44:18;95231.59;;;23.92;97.84
19457;BME280;9867;48.094;11.478;2023-07-31T05:46:46;95241.97;;;23.78;96.72
19457;BME280;9867;48.094;11.478;2023-07-31T05:49:14;95232.06;;;23.70;96.87
19457;BME280;9867;48.094;11.478;2023-07-31T05:51:44;95232.00;;;24.04;94.23
19457;BME280;9867;48.094;11.478;2023-07-31T05:54:12;95238.97;;;23.90;95.41
19457;BME280;9867;48.094;11.478;2023-07-31T05:56:39;95234.56;;;23.86;92.49
19457;BME280;9867;48.094;11.478;2023-07-31T05:59:09;95238.03;;;23.81;93.41
19457;BME280;9867;48.094;11.478;2023-07-31T06:01:37;95234.84;;;23.50;96.12
19457;BME280;9867;48.094;11.478;2023-07-31T06:04:05;95241.22;;;23.73;95.75
19457;BME280;9867;48.094;11.478;2023-07-31T06:06:34;95236.22;;;23.76;96.03
19457;BME280;9867;48.094;11.478;2023-07-31T06:09:02;95230.44;;;23.79;93.81
19457;BME280;9867;48.094;11.478;2023-07-31T06:11:31;95239.91;;;23.75;95.90
19457;BME280;9867;48.094;11.478;2023-07-31T06:13:59;95225.25;;;23.98;94.20
19457;BME280;9867;48.094;11.478;2023-07-31T06:16:28;95238.53;;;23.83;96.45
19457;BME280;9867;48.094;11.478;2023-07-31T06:18:56;95248.22;;;23.83;98.55
19457;BME280;9867;48.094;11.478;2023-07-31T06:21:24;95247.94;;;23.84;97.47
19457;BME280;9867;48.094;11.478;2023-07-31T06:23:59;95258.31;;;23.94;92.20
19457;BME280;9867;48.094;11.478;2023-07-31T06:26:27;95237.81;;;24.01;92.32
19457;BME280;9867;48.094;11.478;2023-07-31T06:28:55;95243.88;;;24.26;88.33
19457;BME280;9867;48.094;11.478;2023-07-31T06:31:23;95240.41;;;24.30;85.80
19457;BME280;9867;48.094;11.478;2023-07-31T06:33:53;95248.88;;;23.93;87.69
19457;BME280;9867;48.094;11.478;2023-07-31T06:36:21;95244.00;;;23.58;91.14
19457;BME280;9867;48.094;11.478;2023-07-31T06:38:49;95245.81;;;24.10;88.72
19457;BME280;9867;48.094;11.478;2023-07-31T06:41:17;95249.47;;;23.61;92.68
19457;BME280;9867;48.094;11.478;2023-07-31T06:43:46;95247.25;;;23.73;92.46
19457;BME280;9867;48.094;11.478;2023-07-31T06:46:16;95241.16;;;24.07;91.54
19457;BME280;9867;48.094;11.478;2023-07-31T06:48:44;95238.88;;;24.48;86.87
19457;BME280;9867;48.094;11.478;2023-07-31T06:51:14;95244.78;;;24.35;89.24
19457;BME280;9867;48.094;11.478;2023-07-31T06:53:42;95245.50;;;24.64;88.36
19457;BME280;9867;48.094;11.478;2023-07-31T06:56:11;95232.31;;;24.27;83.28
19457;BME280;9867;48.094;11.478;2023-07-31T06:58:39;95234.81;;;24.37;81.69
19457;BME280;9867;48.094;11.478;2023-07-31T07:01:07;95222.38;;;24.66;80.11
19457;BME280;9867;48.094;11.478;2023-07-31T07:03:35;95232.81;;;24.29;78.58
19457;BME280;9867;48.094;11.478;2023-07-31T07:06:03;95227.59;;;24.29;77.20
19457;BME280;9867;48.094;11.478;2023-07-31T07:08:33;95238.09;;;24.00;80.79
19457;BME280;9867;48.094;11.478;2023-07-31T07:11:01;95239.13;;;23.75;82.39
19457;BME280;9867;48.094;11.478;2023-07-31T07:13:29;95233.44;;;24.15;80.87
19457;BME280;9867;48.094;11.478;2023-07-31T07:15:57;95235.84;;;23.88;82.43
19457;BME280;9867;48.094;11.478;2023-07-31T07:18:24;95237.06;;;23.38;81.79
19457;BME280;9867;48.094;11.478;2023-07-31T07:20:54;95226.13;;;23.89;81.78
19457;BME280;9867;48.094;11.478;2023-07-31T07:23:24;95235.63;;;23.85;79.18
19457;BME280;9867;48.094;11.478;2023-07-31T07:25:54;95237.41;;;23.26;85.34
19457;BME280;9867;48.094;11.478;2023-07-31T07:28:22;95230.94;;;23.53;87.24
19457;BME280;9867;48.094;11.478;2023-07-31T07:30:51;95234.44;;;23.96;78.24
19457;BME280;9867;48.094;11.478;2023-07-31T07:33:20;95231.84;;;24.20;75.61
19457;BME280;9867;48.094;11.478;2023-07-31T07:35:48;95229.69;;;24.51;75.16
19457;BME280;9867;48.094;11.478;2023-07-31T07:38:16;95215.53;;;25.08;71.36
19457;BME280;9867;48.094;11.478;2023-07-31T07:40:45;95224.13;;;25.46;67.03
19457;BME280;9867;48.094;11.478;2023-07-31T07:43:18;95215.84;;;25.39;67.49
19457;BME280;9867;48.094;11.478;2023-07-31T07:45:46;95223.81;;;25.15;66.64
19457;BME280;9867;48.094;11.478;2023-07-31T07:48:23;95220.97;;;25.11;66.64
19457;BME280;9867;48.094;11.478;2023-07-31T07:50:51;95203.00;;;24.81;66.44
19457;BME280;9867;48.094;11.478;2023-07-31T07:53:19;95203.72;;;24.87;69.33
19457;BME280;9867;48.094;11.478;2023-07-31T07:55:47;95195.91;;;24.20;71.06
19457;BME280;9867;48.094;11.478;2023-07-31T07:58:15;95190.72;;;25.00;66.61
19457;BME280;9867;48.094;11.478;2023-07-31T08:00:50;95193.72;;;24.51;69.92
19457;BME280;9867;48.094;11.478;2023-07-31T08:03:18;95184.00;;;24.89;69.34
19457;BME280;9867;48.094;11.478;2023-07-31T08:05:46;95185.09;;;25.39;65.80
19457;BME280;9867;48.094;11.478;2023-07-31T08:08:15;95182.38;;;25.44;67.11
19457;BME280;9867;48.094;11.478;2023-07-31T08:10:44;95186.94;;;25.39;65.98
19457;BME280;9867;48.094;11.478;2023-07-31T08:13:12;95183.78;;;25.23;63.70
19457;BME280;9867;48.094;11.478;2023-07-31T08:15:43;95193.63;;;25.31;63.23
19457;BME280;9867;48.094;11.478;2023-07-31T08:18:13;95190.59;;;24.87;62.58
19457;BME280;9867;48.094;11.478;2023-07-31T08:20:42;95203.88;;;24.76;58.17
19457;BME280;9867;48.094;11.478;2023-07-31T08:23:10;95197.19;;;25.22;58.58
19457;BME280;9867;48.094;11.478;2023-07-31T08:25:38;95186.94;;;25.39;59.14
19457;BME280;9867;48.094;11.478;2023-07-31T08:28:08;95191.91;;;26.00;56.34
19457;BME280;9867;48.094;11.478;2023-07-31T08:30:36;95194.75;;;25.58;57.72
19457;BME280;9867;48.094;11.478;2023-07-31T08:33:04;95195.03;;;26.02;56.87
19457;BME280;9867;48.094;11.478;2023-07-31T08:35:33;95201.84;;;25.90;58.13
19457;BME280;9867;48.094;11.478;2023-07-31T08:38:01;95194.38;;;25.51;58.20
19457;BME280;9867;48.094;11.478;2023-07-31T08:40:29;95197.56;;;25.47;60.44
19457;BME280;9867;48.094;11.478;2023-07-31T08:42:58;95188.41;;;25.12;61.95
19457;BME280;9867;48.094;11.478;2023-07-31T08:45:29;95182.00;;;25.19;60.33
19457;BME280;9867;48.094;11.478;2023-07-31T08:47:58;95189.72;;;24.96;62.17
19457;BME280;9867;48.094;11.478;2023-07-31T08:50:27;95197.41;;;25.25;60.93
19457;BME280;9867;48.094;11.478;2023-07-31T08:52:56;95184.66;;;25.32;60.95
19457;BME280;9867;48.094;11.478;2023-07-31T08:55:25;95188.34;;;25.31;62.52
19457;BME280;9867;48.094;11.478;2023-07-31T08:57:54;95187.56;;;25.49;62.56
19457;BME280;9867;48.094;11.478;2023-07-31T09:00:24;95195.50;;;25.44;60.03
19457;BME280;9867;48.094;11.478;2023-07-31T09:02:56;95191.56;;;25.28;59.55
19457;BME280;9867;48.094;11.478;2023-07-31T09:05:26;95184.78;;;26.01;59.07
19457;BME280;9867;48.094;11.478;2023-07-31T09:07:57;95189.56;;;26.26;54.43
19457;BME280;9867;48.094;11.478;2023-07-31T09:10:25;95195.78;;;25.75;55.85
19457;BME280;9867;48.094;11.478;2023-07-31T09:12:54;95188.78;;;25.85;55.42
19457;BME280;9867;48.094;11.478;2023-07-31T09:15:25;95191.34;;;26.31;53.93
19457;BME280;9867;48.094;11.478;2023-07-31T09:18:05;95179.84;;;26.13;54.44
19457;BME280;9867;48.094;11.478;2023-07-31T09:20:33;95170.84;;;26.28;53.59
19457;BME280;9867;48.094;11.478;2023-07-31T09:23:10;95177.78;;;26.10;55.64
19457;BME280;9867;48.094;11.478;2023-07-31T09:25:39;95161.72;;;26.39;53.99
19457;BME280;9867;48.094;11.478;2023-07-31T09:28:09;95158.91;;;26.35;56.45
19457;BME280;9867;48.094;11.478;2023-07-31T09:30:45;95162.78;;;27.32;52.70
19457;BME280;9867;48.094;11.478;2023-07-31T09:33:14;95167.63;;;27.16;54.58
19457;BME280;9867;48.094;11.478;2023-07-31T09:35:43;95163.22;;;26.90;52.20
19457;BME280;9867;48.094;11.478;2023-07-31T09:38:13;95166.88;;;26.80;52.26
19457;BME280;9867;48.094;11.478;2023-07-31T09:40:44;95172.84;;;25.95;57.96
19457;BME280;9867;48.094;11.478;2023-07-31T09:43:17;95162.94;;;26.91;53.65
19457;BME280;9867;48.094;11.478;2023-07-31T09:45:46;95176.03;;;25.78;55.10
19457;BME280;9867;48.094;11.478;2023-07-31T09:48:16;95154.91;;;26.38;54.39
19457;BME280;9867;48.094;11.478;2023-07-31T09:50:45;95143.19;;;27.02;53.78
19457;BME280;9867;48.094;11.478;2023-07-31T09:53:16;95143.09;;;27.61;51.42
19457;BME280;9867;48.094;11.478;2023-07-31T09:55:44;95147.44;;;26.90;50.86
19457;BME280;9867;48.094;11.478;2023-07-31T09:58:12;95137.59;;;26.59;50.71
19457;BME280;9867;48.094;11.478;2023-07-31T10:00:40;95137.06;;;26.35;52.52
19457;BME280;9867;48.094;11.478;2023-07-31T10:03:10;95148.75;;;26.15;51.45
19457;BME280;9867;48.094;11.478;2023-07-31T10:05:40;95135.03;;;27.35;51.02
19457;BME280;9867;48.094;11.478;2023-07-31T10:08:13;95123.75;;;26.90;49.87
19457;BME280;9867;48.094;11.478;2023-07-31T10:10:43;95130.88;;;27.42;48.03
19457;BME280;9867;48.094;11.478;2023-07-31T10:13:12;95116.06;;;27.24;49.46
19457;BME280;9867;48.094;11.478;2023-07-31T10:15:41;95105.41;;;28.08;48.09
19457;BME280;9867;48.094;11.478;2023-07-31T10:18:11;95101.63;;;26.55;50.93
19457;BME280;9867;48.094;11.478;2023-07-31T10:20:40;95100.50;;;26.69;49.82
19457;BME280;9867;48.094;11.478;2023-07-31T10:23:09;95099.66;;;26.60;50.27
19457;BME280;9867;48.094;11.478;2023-07-31T10:25:38;95089.56;;;26.76;50.99
19457;BME280;9867;48.094;11.478;2023-07-31T10:28:08;95083.28;;;27.08;47.62
19457;BME280;9867;48.094;11.478;2023-07-31T10:30:38;95112.13;;;26.32;47.83
19457;BME280;9867;48.094;11.478;2023-07-31T10:33:07;95101.75;;;26.94;48.07
19457;BME280;9867;48.094;11.478;2023-07-31T10:35:36;95096.56;;;27.65;48.11
19457;BME280;9867;48.094;11.478;2023-07-31T10:38:10;95093.09;;;27.87;44.55
19457;BME280;9867;48.094;11.478;2023-07-31T10:40:39;95085.03;;;27.52;45.72
19457;BME280;9867;48.094;11.478;2023-07-31T10:43:23;95100.09;;;28.00;43.80
19457;BME280;9867;48.094;11.478;2023-07-31T10:45:53;95099.81;;;28.10;44.96
19457;BME280;9867;48.094;11.478;2023-07-31T10:48:21;95093.78;;;27.30;45.91
19457;BME280;9867;48.094;11.478;2023-07-31T10:50:51;95102.28;;;26.38;47.63
19457;BME280;9867;48.094;11.478;2023-07-31T10:53:23;95095.38;;;26.87;48.02
19457;BME280;9867;48.094;11.478;2023-07-31T10:55:52;95104.66;;;27.06;49.58
19457;BME280;9867;48.094;11.478;2023-07-31T10:58:21;95084.88;;;26.73;48.77
19457;BME280;9867;48.094;11.478;2023-07-31T11:00:50;95075.69;;;26.62;50.41
19457;BME280;9867;48.094;11.478;2023-07-31T11:03:25;95070.41;;;26.62;50.00
19457;BME280;9867;48.094;11.478;2023-07-31T11:06:00;95074.09;;;26.38;52.49
19457;BME280;9867;48.094;11.478;2023-07-31T11:08:31;95069.69;;;26.92;49.55
19457;BME280;9867;48.094;11.478;2023-07-31T11:11:06;95053.88;;;26.70;49.73
19457;BME280;9867;48.094;11.478;2023-07-31T11:13:45;95059.59;;;26.41;51.95
19457;BME280;9867;48.094;11.478;2023-07-31T11:16:17;95058.69;;;26.45;51.93
19457;BME280;9867;48.094;11.478;2023-07-31T11:18:46;95055.75;;;27.14;48.78
19457;BME280;9867;48.094;11.478;2023-07-31T11:21:16;95059.41;;;26.82;47.74
19457;BME280;9867;48.094;11.478;2023-07-31T11:23:46;95050.16;;;26.93;48.15
19457;BME280;9867;48.094;11.478;2023-07-31T11:26:14;95052.50;;;26.95;48.14
19457;BME280;9867;48.094;11.478;2023-07-31T11:28:46;95044.22;;;27.80;46.64
19457;BME280;9867;48.094;11.478;2023-07-31T11:31:15;95037.22;;;27.93;46.98
19457;BME280;9867;48.094;11.478;2023-07-31T11:33:44;95038.31;;;27.92;44.50
19457;BME280;9867;48.094;11.478;2023-07-31T11:36:14;95040.34;;;28.12;45.31
19457;BME280;9867;48.094;11.478;2023-07-31T11:38:44;95031.19;;;27.93;45.29
19457;BME280;9867;48.094;11.478;2023-07-31T11:41:14;95031.41;;;26.64;49.27
19457;BME280;9867;48.094;11.478;2023-07-31T11:43:48;95017.97;;;27.75;44.88
19457;BME280;9867;48.094;11.478;2023-07-31T11:46:17;95012.78;;;27.53;46.43
19457;BME280;9867;48.094;11.478;2023-07-31T11:48:49;94995.22;;;28.05;46.22
19457;BME280;9867;48.094;11.478;2023-07-31T11:51:20;95004.66;;;28.15;43.91
19457;BME280;9867;48.094;11.478;2023-07-31T11:53:51;95001.06;;;27.76;44.80
19457;BME280;9867;48.094;11.478;2023-07-31T11:56:20;95012.56;;;28.15;43.88
19457;BME280;9867;48.094;11.478;2023-07-31T11:58:53;94992.25;;;28.07;42.22
19457;BME280;9867;48.094;11.478;2023-07-31T12:01:22;94987.94;;;27.37;43.34
19457;BME280;9867;48.094;11.478;2023-07-31T12:03:52;94997.19;;;27.91;42.30
19457;BME280;9867;48.094;11.478;2023-07-31T12:06:20;95007.69;;;27.57;41.72
19457;BME280;9867;48.094;11.478;2023-07-31T12:08:49;94973.91;;;27.59;42.14
19457;BME280;9867;48.094;11.478;2023-07-31T12:11:17;94980.94;;;28.06;41.38
19457;BME280;9867;48.094;11.478;2023-07-31T12:13:45;94983.09;;;28.56;41.43
19457;BME280;9867;48.094;11.478;2023-07-31T12:16:14;94974.72;;;28.02;42.93
19457;BME280;9867;48.094;11.478;2023-07-31T12:18:43;94966.78;;;28.19;41.77
19457;BME280;9867;48.094;11.478;2023-07-31T12:21:11;94964.72;;;29.24;41.39
19457;BME280;9867;48.094;11.478;2023-07-31T12:23:40;94953.13;;;29.45;39.28
19457;BME280;9867;48.094;11.478;2023-07-31T12:26:10;94964.06;;;28.89;41.06
19457;BME280;9867;48.094;11.478;2023-07-31T12:28:41;94967.34;;;28.85;41.10
19457;BME280;9867;48.094;11.478;2023-07-31T12:31:11;94953.78;;;28.23;41.14
19457;BME280;9867;48.094;11.478;2023-07-31T12:33:41;94933.81;;;29.15;40.11
19457;BME280;9867;48.094;11.478;2023-07-31T12:36:11;94944.78;;;28.24;40.34
19457;BME280;9867;48.094;11.478;2023-07-31T12:38:40;94942.72;;;28.12;40.87
19457;BME280;9867;48.094;11.478;2023-07-31T12:41:08;94943.38;;;28.27;39.54
19457;BME280;9867;48.094;11.478;2023-07-31T12:43:37;94935.19;;;29.22;39.02
19457;BME280;9867;48.094;11.478;2023-07-31T12:46:06;94923.22;;;29.15;39.76
19457;BME280;9867;48.094;11.478;2023-07-31T12:48:35;94922.69;;;29.60;39.49
19457;BME280;9867;48.094;11.478;2023-07-31T12:51:05;94925.63;;;29.29;40.00
19457;BME280;9867;48.094;11.478;2023-07-31T12:53:33;94925.59;;;29.38;39.79
19457;BME280;9867;48.094;11.478;2023-07-31T12:56:02;94929.44;;;28.73;42.00
19457;BME280;9867;48.094;11.478;2023-07-31T12:58:30;94932.19;;;28.38;41.54
19457;BME280;9867;48.094;11.478;2023-07-31T13:00:58;94933.13;;;28.16;40.86
19457;BME280;9867;48.094;11.478;2023-07-31T13:03:27;94928.00;;;27.68;40.93
19457;BME280;9867;48.094;11.478;2023-07-31T13:05:56;94933.75;;;28.05;41.38
19457;BME280;9867;48.094;11.478;2023-07-31T13:08:30;94926.28;;;28.41;40.42